createdAt,value
2023-05-12T00:00:07.909Z,2.30
2023-05-12T00:02:37.413Z,1.60
2023-05-12T00:05:06.140Z,3.45
2023-05-12T00:07:34.229Z,1.83
2023-05-12T00:10:02.511Z,2.42
2023-05-12T00:12:30.637Z,1.45
2023-05-12T00:14:58.725Z,4.47
2023-05-12T00:17:27.977Z,1.65
2023-05-12T00:19:57.556Z,1.52
2023-05-12T00:22:26.868Z,3.03
2023-05-12T00:24:54.941Z,2.10
2023-05-12T00:27:22.989Z,5.28
2023-05-12T00:29:51.074Z,1.23
2023-05-12T00:32:19.144Z,3.28
2023-05-12T00:34:47.196Z,1.52
2023-05-12T00:37:16.806Z,1.38
2023-05-12T00:39:44.881Z,1.63
2023-05-12T00:42:13.722Z,1.50
2023-05-12T00:44:41.833Z,1.85
2023-05-12T00:47:10.695Z,1.73
2023-05-12T00:49:42.509Z,4.90
2023-05-12T00:52:10.731Z,1.73
2023-05-12T00:54:41.161Z,2.05
2023-05-12T00:57:09.579Z,1.70
2023-05-12T00:59:37.801Z,2.10
2023-05-12T01:02:07.226Z,2.95
2023-05-12T01:04:39.959Z,3.40
2023-05-12T01:07:13.688Z,1.73
2023-05-12T01:09:43.133Z,3.05
2023-05-12T01:12:11.289Z,1.90
2023-05-12T01:14:39.566Z,5.68
2023-05-12T01:17:12.575Z,3.22
2023-05-12T01:19:47.192Z,1.67
2023-05-12T01:22:16.252Z,1.80
2023-05-12T01:24:49.208Z,1.52
2023-05-12T01:27:20.143Z,2.95
2023-05-12T01:29:49.248Z,2.22
2023-05-12T01:32:17.865Z,2.33
2023-05-12T01:34:46.638Z,3.17
2023-05-12T01:37:14.816Z,2.75
2023-05-12T01:39:43.194Z,2.17
2023-05-12T01:42:11.386Z,1.95
2023-05-12T01:44:40.830Z,2.38
2023-05-12T01:47:10.004Z,5.25
2023-05-12T01:49:38.199Z,3.80
2023-05-12T01:52:06.984Z,1.98
2023-05-12T01:54:35.083Z,4.07
2023-05-12T01:57:03.139Z,2.55
2023-05-12T01:59:31.227Z,3.97
2023-05-12T02:02:00.737Z,3.35
2023-05-12T02:04:28.776Z,4.10
2023-05-12T02:06:58.639Z,3.00
2023-05-12T02:09:26.751Z,4.43
2023-05-12T02:11:54.885Z,3.58
2023-05-12T02:14:23.006Z,2.83
2023-05-12T02:16:53.012Z,7.20
2023-05-12T02:19:22.527Z,4.28
2023-05-12T02:21:50.660Z,3.85
2023-05-12T02:24:18.738Z,3.53
2023-05-12T02:26:46.844Z,4.45
2023-05-12T02:29:14.882Z,4.60
2023-05-12T02:31:43.260Z,4.57
2023-05-12T02:34:11.297Z,3.97
2023-05-12T02:36:40.747Z,4.28
2023-05-12T02:39:09.100Z,3.67
2023-05-12T02:41:37.156Z,5.68
2023-05-12T02:44:05.364Z,5.07
2023-05-12T02:46:33.571Z,3.50
2023-05-12T02:49:01.645Z,4.68
2023-05-12T02:51:30.053Z,3.88
2023-05-12T02:53:59.500Z,4.47
2023-05-12T02:56:27.635Z,3.83
2023-05-12T02:58:55.713Z,4.13
2023-05-12T03:01:23.834Z,7.22
2023-05-12T03:03:51.956Z,3.80
2023-05-12T03:06:20.101Z,4.72
2023-05-12T03:08:48.331Z,4.50
2023-05-12T03:11:17.847Z,3.38
2023-05-12T03:13:45.882Z,4.00
2023-05-12T03:16:13.960Z,3.85
2023-05-12T03:18:42.073Z,4.28
2023-05-12T03:21:10.193Z,4.18
2023-05-12T03:23:38.258Z,4.40
2023-05-12T03:26:06.336Z,4.90
2023-05-12T03:28:35.812Z,5.97
2023-05-12T03:31:03.933Z,4.22
2023-05-12T03:33:32.136Z,4.78
2023-05-12T03:36:00.260Z,5.30
2023-05-12T03:38:28.324Z,3.53
2023-05-12T03:41:05.169Z,3.63
2023-05-12T03:43:33.516Z,6.43
2023-05-12T03:46:03.720Z,5.07
2023-05-12T03:48:31.972Z,5.80
2023-05-12T03:51:00.024Z,3.40
2023-05-12T03:53:28.166Z,3.20
2023-05-12T03:55:56.401Z,5.10
2023-05-12T03:58:24.656Z,5.88
2023-05-12T04:00:52.732Z,5.15
2023-05-12T04:03:22.251Z,3.65
2023-05-12T04:05:50.393Z,3.53
2023-05-12T04:08:18.450Z,4.20
2023-05-12T04:10:46.507Z,4.93
2023-05-12T04:13:14.574Z,4.93
2023-05-12T04:15:42.669Z,5.53
2023-05-12T04:18:10.916Z,4.05
2023-05-12T04:20:40.390Z,4.70
2023-05-12T04:23:08.513Z,5.80
2023-05-12T04:25:40.168Z,7.15
2023-05-12T04:28:10.650Z,4.13
2023-05-12T04:30:41.063Z,3.50
2023-05-12T04:33:09.311Z,6.53
2023-05-12T04:35:37.826Z,4.80
2023-05-12T04:38:07.249Z,4.80
2023-05-12T04:40:35.365Z,4.97
2023-05-12T04:43:03.452Z,3.75
2023-05-12T04:45:31.481Z,6.50
2023-05-12T04:47:59.615Z,3.20
2023-05-12T04:50:27.702Z,3.88
2023-05-12T04:52:55.891Z,9.98
2023-05-12T04:55:25.588Z,4.07
2023-05-12T04:57:53.650Z,3.55
2023-05-12T05:00:22.006Z,5.18
2023-05-12T05:02:50.125Z,4.55
2023-05-12T05:05:18.498Z,4.57
2023-05-12T05:07:46.636Z,4.60
2023-05-12T05:10:14.810Z,3.67
2023-05-12T05:12:44.203Z,3.38
2023-05-12T05:15:12.584Z,3.42
2023-05-12T05:17:43.098Z,3.90
2023-05-12T05:20:12.725Z,3.58
2023-05-12T05:22:43.425Z,3.60
2023-05-12T05:25:11.800Z,3.30
2023-05-12T05:27:47.240Z,4.65
2023-05-12T05:30:15.549Z,4.00
2023-05-12T05:32:43.841Z,4.85
2023-05-12T05:35:11.945Z,4.50
2023-05-12T05:37:40.015Z,5.20
2023-05-12T05:40:09.682Z,3.45
2023-05-12T05:42:37.799Z,5.43
2023-05-12T05:45:08.649Z,9.70
2023-05-12T05:47:37.581Z,4.97
2023-05-12T05:50:06.110Z,4.80
2023-05-12T05:52:34.192Z,5.28
2023-05-12T05:55:03.364Z,6.97
2023-05-12T05:57:31.406Z,4.15
2023-05-12T05:59:59.440Z,6.82
2023-05-12T06:02:29.015Z,7.32
2023-05-12T06:04:57.183Z,4.10
2023-05-12T06:07:25.258Z,3.88
2023-05-12T06:09:54.573Z,4.90
2023-05-12T06:12:22.862Z,3.42
2023-05-12T06:14:51.149Z,3.58
2023-05-12T06:17:19.271Z,7.50
2023-05-12T06:19:49.934Z,4.47
2023-05-12T06:22:18.029Z,5.43
2023-05-12T06:24:46.165Z,4.68
2023-05-12T06:27:14.254Z,3.65
2023-05-12T06:29:42.288Z,5.47
2023-05-12T06:32:10.684Z,5.25
2023-05-12T06:34:38.879Z,5.03
2023-05-12T06:37:08.415Z,3.90
2023-05-12T06:39:36.459Z,3.75
2023-05-12T06:42:04.743Z,5.50
2023-05-12T06:44:33.347Z,4.85
2023-05-12T06:47:01.564Z,8.52
2023-05-12T06:49:31.160Z,4.72
2023-05-12T06:51:59.234Z,4.43
2023-05-12T06:54:28.652Z,3.90
2023-05-12T06:56:56.760Z,4.03
2023-05-12T06:59:24.969Z,3.47
2023-05-12T07:01:53.146Z,3.22
2023-05-12T07:04:21.648Z,2.83
2023-05-12T07:06:49.755Z,5.30
2023-05-12T07:09:18.829Z,3.17
2023-05-12T07:11:48.904Z,7.55
2023-05-12T07:14:17.698Z,4.18
2023-05-12T07:16:46.781Z,4.88
2023-05-12T07:19:14.890Z,4.25
2023-05-12T07:21:42.990Z,4.68
2023-05-12T07:24:11.080Z,4.30
2023-05-12T07:26:39.165Z,4.63
2023-05-12T07:29:13.423Z,4.28
2023-05-12T07:31:41.996Z,4.30
2023-05-12T07:34:10.070Z,6.10
2023-05-12T07:36:38.136Z,4.78
2023-05-12T07:39:06.972Z,2.80
2023-05-12T07:41:35.065Z,5.50
2023-05-12T07:44:03.430Z,5.03
2023-05-12T07:46:32.888Z,4.10
2023-05-12T07:49:00.972Z,3.22
2023-05-12T07:51:29.201Z,4.78
2023-05-12T07:53:58.136Z,4.32
2023-05-12T07:56:26.420Z,3.28
2023-05-12T07:58:55.206Z,4.35
2023-05-12T08:01:24.126Z,3.00
2023-05-12T08:03:53.712Z,4.07
2023-05-12T08:06:21.841Z,4.32
2023-05-12T08:08:49.882Z,3.22
2023-05-12T08:11:17.945Z,3.72
2023-05-12T08:13:45.995Z,3.78
2023-05-12T08:16:14.017Z,5.05
2023-05-12T08:18:42.196Z,3.97
2023-05-12T08:21:11.976Z,3.97
2023-05-12T08:23:40.059Z,5.97
2023-05-12T08:26:08.233Z,4.78
2023-05-12T08:28:36.557Z,5.10
2023-05-12T08:31:05.227Z,5.25
2023-05-12T08:33:34.913Z,4.93
2023-05-12T08:36:03.170Z,4.57
2023-05-12T08:38:33.729Z,2.92
2023-05-12T08:41:17.836Z,6.18
2023-05-12T08:43:47.559Z,4.90
2023-05-12T08:46:15.822Z,4.38
2023-05-12T08:48:46.231Z,3.45
2023-05-12T08:51:15.360Z,6.25
2023-05-12T08:53:45.118Z,3.05
2023-05-12T08:59:03.520Z,3.00
2023-05-12T09:01:33.089Z,4.10
2023-05-12T09:04:02.366Z,4.03
2023-05-12T09:06:30.839Z,5.05
2023-05-12T09:09:00.437Z,5.00
2023-05-12T09:11:28.529Z,5.13
2023-05-12T09:14:02.665Z,4.03
2023-05-12T09:16:33.025Z,4.40
2023-05-12T09:19:04.570Z,4.20
2023-05-12T09:21:34.710Z,4.80
2023-05-12T09:24:06.962Z,3.60
2023-05-12T09:26:47.782Z,5.13
2023-05-12T09:29:24.275Z,4.70
2023-05-12T09:31:58.617Z,6.30
2023-05-12T09:34:30.019Z,3.60
2023-05-12T09:36:59.120Z,3.72
2023-05-12T09:39:28.973Z,4.80
2023-05-12T09:41:57.222Z,3.58
2023-05-12T09:44:26.451Z,3.50
2023-05-12T09:46:54.503Z,4.18
2023-05-12T09:49:24.980Z,4.65
2023-05-12T09:51:54.516Z,4.40
2023-05-12T09:54:26.394Z,4.78
2023-05-12T09:56:59.446Z,3.70
2023-05-12T09:59:31.479Z,5.07
2023-05-12T10:02:01.376Z,3.33
2023-05-12T10:04:31.182Z,3.08
2023-05-12T10:07:00.170Z,4.00
2023-05-12T10:09:33.961Z,3.25
2023-05-12T10:12:06.264Z,5.03
2023-05-12T10:14:35.772Z,3.65
2023-05-12T10:17:04.145Z,3.05
2023-05-12T10:19:35.475Z,4.32
2023-05-12T10:22:04.057Z,3.65
2023-05-12T10:24:32.191Z,5.80
2023-05-12T10:27:00.878Z,4.72
2023-05-12T10:29:33.035Z,4.68
2023-05-12T10:32:02.162Z,6.10
2023-05-12T10:34:33.939Z,3.30
2023-05-12T10:39:32.883Z,3.78
2023-05-12T10:42:07.377Z,5.10
2023-05-12T10:44:37.428Z,3.33
2023-05-12T10:47:14.939Z,4.10
2023-05-12T10:49:43.346Z,5.00
2023-05-12T10:52:13.242Z,8.98
2023-05-12T10:54:44.441Z,4.32
2023-05-12T10:57:19.063Z,3.60
2023-05-12T10:59:53.260Z,3.13
2023-05-12T11:02:27.632Z,2.70
2023-05-12T11:04:59.138Z,6.47
2023-05-12T11:07:30.308Z,4.00
2023-05-12T11:10:02.022Z,2.75
2023-05-12T11:12:33.273Z,3.70
2023-05-12T11:15:04.570Z,3.40
2023-05-12T11:17:33.141Z,3.58
2023-05-12T11:20:01.992Z,4.00
2023-05-12T11:22:30.399Z,2.70
2023-05-12T11:24:58.616Z,3.65
2023-05-12T11:27:26.707Z,2.58
2023-05-12T11:29:58.541Z,3.22
2023-05-12T11:32:28.297Z,3.78
2023-05-12T11:34:56.555Z,4.25
2023-05-12T11:37:24.700Z,3.58
2023-05-12T11:39:53.758Z,3.63
2023-05-12T11:42:24.296Z,6.45
2023-05-12T11:44:55.464Z,4.03
2023-05-12T11:47:23.718Z,5.82
2023-05-12T11:49:54.665Z,6.35
2023-05-12T11:52:24.197Z,3.30
2023-05-12T11:54:53.124Z,4.22
2023-05-12T11:57:28.574Z,3.85
2023-05-12T12:00:01.764Z,4.78
2023-05-12T12:02:30.452Z,3.60
2023-05-12T12:04:59.953Z,4.13
2023-05-12T12:07:32.511Z,8.48
2023-05-12T12:10:11.408Z,2.80
2023-05-12T12:12:39.506Z,3.95
2023-05-12T12:15:08.705Z,4.47
2023-05-12T12:17:36.816Z,5.40
2023-05-12T12:20:07.841Z,4.50
2023-05-12T12:22:36.031Z,4.72
2023-05-12T12:25:04.993Z,5.30
2023-05-12T12:27:33.171Z,3.95
2023-05-12T12:30:01.215Z,6.13
2023-05-12T12:32:29.413Z,5.10
2023-05-12T12:35:00.004Z,4.32
2023-05-12T12:37:29.425Z,3.42
2023-05-12T12:39:57.466Z,5.68
2023-05-12T12:42:25.691Z,4.25
2023-05-12T12:44:54.019Z,5.43
2023-05-12T12:47:23.412Z,3.53
2023-05-12T12:49:51.673Z,4.47
2023-05-12T12:52:19.785Z,4.18
2023-05-12T12:54:49.229Z,3.83
2023-05-12T12:57:17.477Z,5.00
2023-05-12T12:59:45.490Z,6.25
2023-05-12T13:02:13.623Z,4.03
2023-05-12T13:04:41.751Z,3.17
2023-05-12T13:07:09.841Z,3.50
2023-05-12T13:09:38.094Z,2.65
2023-05-12T13:12:08.714Z,4.03
2023-05-12T13:14:36.755Z,3.90
2023-05-12T13:17:05.353Z,3.15
2023-05-12T13:19:34.354Z,3.85
2023-05-12T13:22:04.038Z,2.92
2023-05-12T13:24:32.134Z,4.20
2023-05-12T13:27:00.201Z,2.85
2023-05-12T13:29:29.843Z,3.90
2023-05-12T13:31:57.926Z,3.20
2023-05-12T13:34:25.993Z,3.10
2023-05-12T13:36:54.139Z,3.80
2023-05-12T13:39:22.252Z,2.88
2023-05-12T13:41:50.333Z,3.78
2023-05-12T13:44:19.425Z,3.25
2023-05-12T13:46:48.959Z,3.20
2023-05-12T13:49:19.769Z,2.70
2023-05-12T13:51:47.954Z,2.58
2023-05-12T13:54:15.994Z,6.28
2023-05-12T13:56:44.039Z,5.95
2023-05-12T13:59:12.076Z,4.03
2023-05-12T14:01:41.108Z,3.03
2023-05-12T14:04:10.656Z,4.25
2023-05-12T14:06:38.748Z,3.72
2023-05-12T14:09:06.893Z,5.93
2023-05-12T14:11:35.432Z,5.40
2023-05-12T14:14:04.283Z,3.00
2023-05-12T14:16:32.337Z,3.30
2023-05-12T14:19:00.910Z,4.15
2023-05-12T14:21:30.448Z,3.03
2023-05-12T14:23:58.509Z,6.20
2023-05-12T14:26:26.684Z,3.40
2023-05-12T14:28:54.853Z,3.85
2023-05-12T14:31:22.965Z,4.38
2023-05-12T14:33:51.147Z,5.20
2023-05-12T14:36:19.180Z,4.55
2023-05-12T14:38:49.169Z,4.88
2023-05-12T14:41:17.352Z,3.05
2023-05-12T14:43:45.377Z,5.55
2023-05-12T14:46:13.787Z,2.95
2023-05-12T14:48:41.906Z,2.53
2023-05-12T14:51:09.934Z,2.00
2023-05-12T14:53:38.031Z,4.57
2023-05-12T14:56:07.769Z,1.52
2023-05-12T14:58:35.817Z,2.20
2023-05-12T15:01:04.283Z,2.45
2023-05-12T15:03:33.622Z,2.28
2023-05-12T15:06:06.305Z,2.45
2023-05-12T15:08:35.634Z,1.58
2023-05-12T15:11:03.764Z,3.42
2023-05-12T15:13:33.206Z,2.38
2023-05-12T15:16:01.424Z,1.83
2023-05-12T15:18:29.618Z,2.45
2023-05-12T15:20:57.853Z,2.67
2023-05-12T15:23:26.047Z,2.80
2023-05-12T15:25:55.649Z,2.50
2023-05-12T15:28:23.725Z,3.08
2023-05-12T15:30:59.249Z,2.60
2023-05-12T15:33:27.331Z,5.43
2023-05-12T15:35:55.699Z,2.85
2023-05-12T15:38:23.888Z,3.70
2023-05-12T15:40:51.959Z,3.42
2023-05-12T15:43:20.056Z,7.47
2023-05-12T15:45:48.096Z,3.78
2023-05-12T15:48:17.598Z,2.55
2023-05-12T15:50:45.718Z,4.57
2023-05-12T15:53:13.770Z,2.50
2023-05-12T15:55:41.866Z,1.92
2023-05-12T15:58:09.928Z,4.55
2023-05-12T16:00:38.020Z,2.50
2023-05-12T16:03:06.242Z,2.53
2023-05-12T16:05:38.001Z,2.85
2023-05-12T16:08:06.131Z,3.00
2023-05-12T16:10:34.183Z,3.00
2023-05-12T16:13:02.265Z,2.35
2023-05-12T16:15:30.332Z,2.78
2023-05-12T16:17:58.536Z,3.33
2023-05-12T16:20:26.727Z,3.17
2023-05-12T16:22:56.289Z,3.65
2023-05-12T16:25:24.390Z,6.65
2023-05-12T16:27:53.195Z,3.78
2023-05-12T16:30:21.260Z,4.95
2023-05-12T16:32:49.373Z,4.65
2023-05-12T16:35:17.714Z,2.90
2023-05-12T16:37:45.904Z,3.80
2023-05-12T16:40:15.854Z,4.05
2023-05-12T16:42:43.921Z,3.08
2023-05-12T16:45:12.798Z,3.75
2023-05-12T16:47:40.926Z,4.22
2023-05-12T16:50:10.212Z,5.50
2023-05-12T16:52:38.255Z,2.97
2023-05-12T16:55:07.204Z,5.80
2023-05-12T16:57:36.741Z,3.53
2023-05-12T17:00:06.566Z,6.13
2023-05-12T17:02:34.806Z,3.92
2023-05-12T17:05:03.190Z,3.38
2023-05-12T17:07:31.301Z,7.07
2023-05-12T17:09:59.339Z,2.53
2023-05-12T17:12:27.430Z,7.28
2023-05-12T17:15:06.844Z,3.05
2023-05-12T17:17:36.222Z,4.10
2023-05-12T17:20:06.032Z,3.75
2023-05-12T17:22:37.091Z,2.92
2023-05-12T17:25:05.790Z,3.00
2023-05-12T17:27:33.852Z,3.05
2023-05-12T17:30:04.561Z,3.95
2023-05-12T17:32:32.959Z,3.67
2023-05-12T17:35:01.079Z,3.90
2023-05-12T17:37:30.195Z,5.15
2023-05-12T17:39:59.360Z,5.63
2023-05-12T17:42:30.986Z,6.35
2023-05-12T17:44:59.262Z,3.08
2023-05-12T17:47:29.148Z,16.20
2023-05-12T17:49:57.578Z,12.20
2023-05-12T17:52:25.787Z,7.68
2023-05-12T17:54:57.347Z,5.30
2023-05-12T17:57:25.491Z,7.25
2023-05-12T17:59:53.568Z,3.88
2023-05-12T18:02:21.763Z,4.95
2023-05-12T18:04:51.309Z,3.90
2023-05-12T18:07:20.169Z,5.57
2023-05-12T18:09:48.228Z,4.25
2023-05-12T18:12:17.978Z,4.03
2023-05-12T18:14:46.610Z,3.25
2023-05-12T18:17:15.512Z,3.00
2023-05-12T18:19:43.628Z,3.40
2023-05-12T18:22:13.192Z,3.35
2023-05-12T18:24:41.242Z,2.88
2023-05-12T18:27:09.302Z,4.18
2023-05-12T18:29:37.365Z,3.17
2023-05-12T18:32:05.712Z,4.07
2023-05-12T18:34:33.804Z,3.35
2023-05-12T18:37:01.873Z,2.35
2023-05-12T18:39:31.422Z,4.72
2023-05-12T18:41:59.562Z,3.20
2023-05-12T18:44:27.642Z,3.22
2023-05-12T18:46:55.751Z,3.22
2023-05-12T18:49:23.891Z,2.88
2023-05-12T18:51:51.974Z,3.05
2023-05-12T18:54:20.165Z,3.63
2023-05-12T18:56:50.797Z,2.45
2023-05-12T18:59:18.885Z,3.28
2023-05-12T19:01:47.326Z,4.10
2023-05-12T19:04:15.778Z,3.75
2023-05-12T19:06:43.877Z,3.42
2023-05-12T19:09:11.980Z,3.65
2023-05-12T19:11:40.051Z,25.55
2023-05-12T19:14:09.544Z,120.15
2023-05-12T19:16:38.286Z,84.82
2023-05-12T19:19:06.506Z,27.85
2023-05-12T19:21:34.590Z,24.05
2023-05-12T19:24:02.697Z,9.77
2023-05-12T19:26:30.789Z,5.75
2023-05-12T19:29:00.460Z,6.07
2023-05-12T19:31:30.049Z,7.68
2023-05-12T19:33:58.280Z,5.97
2023-05-12T19:36:27.592Z,9.77
2023-05-12T19:38:59.456Z,18.90
2023-05-12T19:43:56.545Z,23.38
2023-05-12T19:46:24.687Z,13.73
2023-05-12T19:48:54.173Z,9.65
2023-05-12T19:51:22.268Z,7.80
2023-05-12T19:53:50.341Z,7.82
2023-05-12T19:56:18.811Z,5.22
2023-05-12T19:58:46.871Z,5.88
2023-05-12T20:01:15.117Z,5.97
2023-05-12T20:03:43.309Z,5.22
2023-05-12T20:06:13.230Z,10.02
2023-05-12T20:08:41.370Z,4.50
2023-05-12T20:11:09.423Z,4.68
2023-05-12T20:13:37.674Z,5.28
2023-05-12T20:16:06.277Z,4.28
2023-05-12T20:18:34.451Z,4.85
2023-05-12T20:21:02.489Z,3.85
2023-05-12T20:23:32.116Z,5.25
2023-05-12T20:26:00.224Z,5.13
2023-05-12T20:28:29.224Z,5.82
2023-05-12T20:30:57.368Z,9.32
2023-05-12T20:33:25.500Z,3.58
2023-05-12T20:35:53.686Z,5.05
2023-05-12T20:38:21.783Z,5.90
2023-05-12T20:40:51.363Z,5.80
2023-05-12T20:43:19.437Z,7.15
2023-05-12T20:45:47.477Z,4.22
2023-05-12T20:48:15.589Z,5.43
2023-05-12T20:50:43.739Z,5.50
2023-05-12T20:53:11.771Z,7.47
2023-05-12T20:55:42.894Z,5.90
2023-05-12T20:58:12.494Z,5.45
2023-05-12T21:00:40.580Z,6.45
2023-05-12T21:03:14.322Z,4.22
2023-05-12T21:05:47.565Z,6.88
2023-05-12T21:08:15.768Z,4.85
2023-05-12T21:10:43.823Z,4.28
2023-05-12T21:13:13.311Z,6.53
2023-05-12T21:15:41.422Z,5.10
2023-05-12T21:18:09.547Z,2.70
2023-05-12T21:20:37.799Z,4.22
2023-05-12T21:23:08.558Z,5.80
2023-05-12T21:25:36.669Z,4.00
2023-05-12T21:28:07.608Z,4.85
2023-05-12T21:30:37.384Z,3.90
2023-05-12T21:33:05.967Z,4.43
2023-05-12T21:35:34.096Z,3.95
2023-05-12T21:38:02.222Z,4.07
2023-05-12T21:40:30.679Z,4.95
2023-05-12T21:42:58.756Z,4.15
2023-05-12T21:45:26.923Z,3.83
2023-05-12T21:47:56.467Z,4.38
2023-05-12T21:50:24.578Z,4.13
2023-05-12T21:52:52.626Z,3.50
2023-05-12T21:55:20.707Z,4.57
2023-05-12T21:57:48.795Z,5.40
2023-05-12T22:00:19.970Z,12.88
2023-05-12T22:02:48.836Z,7.80
2023-05-12T22:05:18.367Z,5.05
2023-05-12T22:07:46.514Z,5.50
2023-05-12T22:10:14.763Z,5.40
2023-05-12T22:12:42.848Z,5.00
2023-05-12T22:15:11.642Z,5.50
2023-05-12T22:17:40.322Z,7.72
2023-05-12T22:20:10.214Z,6.35
2023-05-12T22:22:39.673Z,2.58
2023-05-12T22:25:08.905Z,3.22
2023-05-12T22:27:37.326Z,3.63
2023-05-12T22:30:06.003Z,3.53
2023-05-12T22:32:34.248Z,3.20
2023-05-12T22:35:02.341Z,7.05
2023-05-12T22:37:30.593Z,3.15
2023-05-12T22:40:00.151Z,5.07
2023-05-12T22:42:28.246Z,4.53
2023-05-12T22:44:57.381Z,5.70
2023-05-12T22:47:25.594Z,3.70
2023-05-12T22:49:53.660Z,4.30
2023-05-12T22:52:21.899Z,4.03
2023-05-12T22:54:53.662Z,4.75
2023-05-12T22:57:23.750Z,5.03
2023-05-12T22:59:51.884Z,4.97
2023-05-12T23:02:20.066Z,3.92
2023-05-12T23:04:48.167Z,3.05
2023-05-12T23:07:16.507Z,4.80
2023-05-12T23:09:44.587Z,4.32
2023-05-12T23:12:12.655Z,3.92
2023-05-12T23:14:42.156Z,4.57
2023-05-12T23:17:10.520Z,6.15
2023-05-12T23:19:40.102Z,7.65
2023-05-12T23:22:08.181Z,6.95
2023-05-12T23:24:36.486Z,4.32
2023-05-12T23:27:04.706Z,3.83
2023-05-12T23:29:34.103Z,7.05
2023-05-12T23:32:03.751Z,5.80
2023-05-12T23:34:31.876Z,4.20
2023-05-12T23:36:59.916Z,4.95
2023-05-12T23:39:28.013Z,3.88
2023-05-12T23:41:56.103Z,7.20
2023-05-12T23:44:24.197Z,4.43
2023-05-12T23:46:52.386Z,5.32
2023-05-12T23:49:21.988Z,6.55
2023-05-12T23:51:50.011Z,6.22
2023-05-12T23:54:18.067Z,8.02
2023-05-12T23:56:46.142Z,10.80
2023-05-12T23:59:14.200Z,9.38
